Time;durP1;ratioP1;P1;durP2;ratioP2;P2;SDS_P1;SDS_P2;PMS_P1;PMS_P2;Temp;Humidity;BMP_temperature;BMP_pressure;BME280_temperature;BME280_humidity;BME280_pressure;Samples;Min_cycle;Max_cycle;Signal;HPM_P1;HPM_P2
2021/04/27 00:01:26;;;;;;;1.20;0.90;;;7.50;78.90;;;;;;4989822;28;20473;-72
2021/04/27 00:03:52;;;;;;;1.20;0.90;;;7.50;80.80;;;;;;4990610;28;20455;-71
2021/04/27 00:06:19;;;;;;;1.20;0.80;;;7.30;78.20;;;;;;4989773;28;20474;-72
2021/04/27 00:08:45;;;;;;;1.20;0.80;;;7.30;81.60;;;;;;4990371;28;20454;-71
2021/04/27 00:11:12;;;;;;;1.50;1.20;;;7.20;81.40;;;;;;4990229;28;20451;-71
2021/04/27 00:13:38;;;;;;;2.60;1.00;;;7.20;83.00;;;;;;4989965;28;20458;-71
2021/04/27 00:16:05;;;;;;;4.03;1.40;;;7.30;81.70;;;;;;4989336;28;20514;-72
2021/04/27 00:18:31;;;;;;;2.63;1.07;;;7.20;79.00;;;;;;4990327;28;20505;-71
2021/04/27 00:20:58;;;;;;;1.20;0.90;;;7.40;79.20;;;;;;4991032;28;20446;-71
2021/04/27 00:23:26;;;;;;;1.60;1.00;;;7.60;75.20;;;;;;4994443;28;20446;-71
2021/04/27 00:25:53;;;;;;;1.20;0.80;;;7.80;76.00;;;;;;4993400;28;20473;-71
2021/04/27 00:28:19;;;;;;;1.20;0.80;;;7.50;75.70;;;;;;4993747;28;20446;-71
2021/04/27 00:30:45;;;;;;;1.30;0.90;;;7.70;75.00;;;;;;4993786;28;20458;-71
2021/04/27 00:33:12;;;;;;;2.07;1.20;;;7.40;79.40;;;;;;4993959;28;20454;-70
2021/04/27 00:35:38;;;;;;;1.20;0.83;;;7.30;82.30;;;;;;4993782;28;20478;-72
2021/04/27 00:38:05;;;;;;;1.40;1.00;;;6.90;81.50;;;;;;4993804;28;20464;-72
2021/04/27 00:40:32;;;;;;;1.20;0.80;;;6.80;84.10;;;;;;4993996;28;20961;-71
2021/04/27 00:42:58;;;;;;;1.20;0.80;;;6.80;83.80;;;;;;4993821;28;20482;-71
2021/04/27 00:45:27;;;;;;;1.20;0.90;;;6.70;82.40;;;;;;4993481;28;20450;-71
2021/04/27 00:47:54;;;;;;;1.20;0.83;;;6.90;83.80;;;;;;4993918;28;20454;-71
2021/04/27 00:50:26;;;;;;;1.20;0.80;;;6.70;83.70;;;;;;4993996;28;20454;-71
2021/04/27 00:52:53;;;;;;;1.20;1.00;;;6.60;83.80;;;;;;4994180;28;20447;-71
2021/04/27 00:55:21;;;;;;;1.20;0.80;;;6.60;84.50;;;;;;4992984;28;20701;-71
2021/04/27 00:57:48;;;;;;;1.20;0.90;;;6.50;87.50;;;;;;4993507;28;20442;-71
2021/04/27 01:00:17;;;;;;;1.20;1.00;;;6.40;85.90;;;;;;4992896;28;20487;-70
2021/04/27 01:02:43;;;;;;;1.20;0.80;;;6.40;86.10;;;;;;4993083;28;20830;-71
2021/04/27 01:05:13;;;;;;;1.77;1.00;;;6.30;85.00;;;;;;4993013;28;20438;-72
2021/04/27 01:07:48;;;;;;;1.47;1.07;;;6.30;84.20;;;;;;4993509;28;20477;-71
2021/04/27 01:10:17;;;;;;;1.20;0.80;;;6.50;83.80;;;;;;4993596;28;20674;-72
2021/04/27 01:12:51;;;;;;;1.20;0.80;;;6.70;81.40;;;;;;4993327;28;20458;-71
2021/04/27 01:15:24;;;;;;;1.20;0.80;;;6.50;82.40;;;;;;4993312;28;20482;-71
2021/04/27 01:17:51;;;;;;;1.20;0.80;;;6.30;86.70;;;;;;4992958;28;20833;-71
2021/04/27 01:20:25;;;;;;;1.40;1.07;;;6.40;88.10;;;;;;4993055;28;20960;-70
2021/04/27 01:23:03;;;;;;;2.33;1.43;;;6.20;84.20;;;;;;4993161;28;20453;-71
2021/04/27 01:25:34;;;;;;;1.30;0.90;;;6.00;85.10;;;;;;4993060;28;20443;-70
2021/04/27 01:28:02;;;;;;;1.20;1.00;;;6.10;86.10;;;;;;4993074;28;20533;-72
2021/04/27 01:30:31;;;;;;;1.40;1.03;;;6.10;86.20;;;;;;4989208;28;20840;-71
2021/04/27 01:32:58;;;;;;;1.23;0.93;;;6.30;87.50;;;;;;4992780;28;20517;-70
2021/04/27 01:35:25;;;;;;;1.20;0.80;;;6.20;86.20;;;;;;4992404;28;20474;-71
2021/04/27 01:37:51;;;;;;;1.20;0.80;;;6.40;88.70;;;;;;4992712;28;20446;-71
2021/04/27 01:40:18;;;;;;;1.20;0.90;;;6.00;86.00;;;;;;4993187;28;20505;-71
2021/04/27 01:42:45;;;;;;;1.30;1.00;;;5.80;88.00;;;;;;4992973;28;21019;-71
2021/04/27 01:45:14;;;;;;;2.00;0.90;;;5.70;89.50;;;;;;4992023;28;20447;-72
2021/04/27 01:47:40;;;;;;;1.30;1.00;;;5.60;87.60;;;;;;4991629;28;20521;-72
2021/04/27 01:50:08;;;;;;;2.13;1.23;;;5.60;88.90;;;;;;4992573;28;21051;-71
2021/04/27 01:52:35;;;;;;;1.20;0.80;;;5.70;90.40;;;;;;4992633;28;20442;-71
2021/04/27 01:55:01;;;;;;;1.40;1.10;;;5.50;89.30;;;;;;4992188;28;20516;-71
2021/04/27 01:57:27;;;;;;;1.20;1.00;;;5.40;88.60;;;;;;4992362;28;21024;-71
2021/04/27 01:59:55;;;;;;;1.30;0.90;;;5.40;89.90;;;;;;4992390;28;20450;-71
2021/04/27 02:02:22;;;;;;;1.20;0.80;;;5.40;90.50;;;;;;4992828;28;20447;-71
2021/04/27 02:04:48;;;;;;;1.20;0.90;;;5.30;88.20;;;;;;4992872;28;20828;-71
2021/04/27 02:07:14;;;;;;;1.73;1.00;;;5.90;91.00;;;;;;4991955;28;20862;-71
2021/04/27 02:09:41;;;;;;;1.20;0.80;;;5.60;88.20;;;;;;5009137;28;20928;-71
2021/04/27 02:12:08;;;;;;;1.20;0.90;;;5.50;88.70;;;;;;5012059;28;20995;-71
2021/04/27 02:14:35;;;;;;;1.20;0.80;;;5.50;90.20;;;;;;5012499;28;20477;-71
2021/04/27 02:17:06;;;;;;;1.20;0.80;;;5.30;89.30;;;;;;5011376;28;20488;-69
2021/04/27 02:19:34;;;;;;;1.20;0.80;;;5.20;90.40;;;;;;5012232;28;20445;-71
2021/04/27 02:22:04;;;;;;;1.20;0.80;;;5.30;89.70;;;;;;5011930;28;20817;-72
2021/04/27 02:24:32;;;;;;;1.20;0.90;;;5.10;90.50;;;;;;5002918;28;20442;-72
2021/04/27 02:26:59;;;;;;;1.20;0.80;;;5.10;91.40;;;;;;4991943;28;20477;-71
2021/04/27 02:29:26;;;;;;;1.20;0.80;;;5.10;91.20;;;;;;4992369;28;20442;-70
2021/04/27 02:31:52;;;;;;;2.27;0.90;;;5.10;91.60;;;;;;4992419;28;20885;-71
2021/04/27 02:34:20;;;;;;;1.20;0.80;;;5.10;91.70;;;;;;4991968;28;21017;-71
2021/04/27 02:36:49;;;;;;;1.20;0.80;;;5.10;90.80;;;;;;4991999;28;20467;-71
2021/04/27 02:39:16;;;;;;;1.93;1.10;;;5.20;91.60;;;;;;4992150;28;20447;-72
2021/04/27 02:41:42;;;;;;;2.40;1.20;;;5.30;91.10;;;;;;4992091;28;20497;-71
2021/04/27 02:44:10;;;;;;;1.93;1.10;;;5.10;92.50;;;;;;4991316;28;20458;-71
2021/04/27 02:46:36;;;;;;;1.20;0.83;;;5.00;89.90;;;;;;4991849;28;20469;-72
2021/04/27 02:49:03;;;;;;;1.20;0.90;;;5.00;93.80;;;;;;4991846;28;20473;-72
2021/04/27 02:51:29;;;;;;;1.50;1.00;;;5.00;91.80;;;;;;4992118;28;20442;-71
2021/04/27 02:53:56;;;;;;;1.20;0.90;;;5.00;92.20;;;;;;4991880;28;20462;-70
2021/04/27 02:56:23;;;;;;;1.20;0.90;;;4.90;90.90;;;;;;4991015;28;20466;-71
2021/04/27 02:58:49;;;;;;;5.67;1.00;;;4.90;90.70;;;;;;4991346;28;20450;-71
2021/04/27 03:01:15;;;;;;;1.30;1.00;;;4.90;92.50;;;;;;4991689;28;20834;-71
2021/04/27 03:03:42;;;;;;;1.20;0.80;;;4.80;92.80;;;;;;4991665;28;20453;-71
2021/04/27 03:06:08;;;;;;;1.20;0.80;;;4.80;93.00;;;;;;4991064;28;20981;-69
2021/04/27 03:08:34;;;;;;;1.20;0.90;;;4.80;93.50;;;;;;4991475;28;20455;-71
2021/04/27 03:11:01;;;;;;;1.20;0.90;;;4.80;93.50;;;;;;4991171;28;20482;-71
2021/04/27 03:13:28;;;;;;;1.20;0.80;;;4.70;93.10;;;;;;4991040;28;20824;-71
2021/04/27 03:15:54;;;;;;;1.20;0.80;;;5.10;94.50;;;;;;4990859;28;20549;-71
2021/04/27 03:18:20;;;;;;;1.20;0.80;;;4.90;92.20;;;;;;4991192;28;20446;-71
2021/04/27 03:20:47;;;;;;;1.40;1.10;;;4.90;92.60;;;;;;4991500;28;20446;-72
2021/04/27 03:23:14;;;;;;;1.20;0.80;;;5.20;95.90;;;;;;4990755;28;20446;-71
2021/04/27 03:25:40;;;;;;;2.90;1.00;;;5.10;93.50;;;;;;4991007;28;20864;-71
2021/04/27 03:28:09;;;;;;;1.33;1.10;;;4.90;93.50;;;;;;4990963;28;20454;-72
2021/04/27 03:30:35;;;;;;;1.20;0.80;;;4.70;93.40;;;;;;4990804;28;20446;-70
2021/04/27 03:33:01;;;;;;;1.20;0.80;;;4.80;93.40;;;;;;4991003;28;21092;-71
2021/04/27 03:35:28;;;;;;;2.70;1.10;;;4.70;94.20;;;;;;4990537;28;20481;-71
2021/04/27 03:37:54;;;;;;;1.50;1.10;;;4.70;94.10;;;;;;4991079;28;20450;-71
2021/04/27 03:40:21;;;;;;;1.20;0.80;;;4.70;94.10;;;;;;4990722;28;20969;-71
2021/04/27 03:42:47;;;;;;;2.23;1.10;;;4.80;93.60;;;;;;4991152;28;20454;-70
2021/04/27 03:45:17;;;;;;;1.20;0.90;;;4.70;92.30;;;;;;4990397;28;20453;-72
2021/04/27 03:47:44;;;;;;;1.20;0.80;;;4.80;94.70;;;;;;4990396;28;20471;-72
2021/04/27 03:50:15;;;;;;;1.20;0.90;;;4.70;94.80;;;;;;4990604;28;20458;-71
2021/04/27 03:52:42;;;;;;;1.20;0.80;;;4.60;93.00;;;;;;4990911;28;20446;-71
2021/04/27 03:55:09;;;;;;;1.47;1.00;;;4.60;94.20;;;;;;4989635;28;20482;-71
2021/04/27 03:57:36;;;;;;;1.20;0.80;;;4.80;94.20;;;;;;4990521;28;20852;-71
2021/04/27 04:00:04;;;;;;;1.20;0.90;;;4.60;93.00;;;;;;4990155;28;20828;-71
2021/04/27 04:02:31;;;;;;;1.20;0.80;;;4.70;93.60;;;;;;4990629;28;20442;-71
2021/04/27 04:04:57;;;;;;;1.20;0.90;;;4.70;95.00;;;;;;4990294;28;20450;-70
2021/04/27 04:07:23;;;;;;;1.30;0.90;;;4.70;94.80;;;;;;4990320;28;20478;-71
2021/04/27 04:09:49;;;;;;;1.20;1.00;;;4.60;95.40;;;;;;4990770;28;20975;-71
2021/04/27 04:12:16;;;;;;;1.20;0.90;;;4.80;95.70;;;;;;4990442;28;20451;-72
2021/04/27 04:14:42;;;;;;;1.20;0.90;;;4.80;94.80;;;;;;4990132;28;20482;-72
2021/04/27 04:17:08;;;;;;;1.20;0.90;;;4.70;94.00;;;;;;4989098;28;20996;-71
2021/04/27 04:19:36;;;;;;;1.20;0.80;;;4.70;94.00;;;;;;4990158;28;20446;-71
2021/04/27 04:22:04;;;;;;;1.57;1.47;;;4.70;93.50;;;;;;4990508;28;20447;-70
2021/04/27 04:24:31;;;;;;;1.20;0.90;;;4.70;94.70;;;;;;4990337;28;20446;-71
2021/04/27 04:26:57;;;;;;;1.20;0.90;;;4.60;95.90;;;;;;4990143;28;21037;-70
2021/04/27 04:29:24;;;;;;;1.20;0.80;;;4.70;96.10;;;;;;4989848;28;20984;-70
2021/04/27 04:31:51;;;;;;;1.20;0.80;;;4.80;94.70;;;;;;4998217;28;20457;-70
2021/04/27 04:34:17;;;;;;;1.20;0.80;;;4.70;94.90;;;;;;4998212;28;20965;-70
2021/04/27 04:36:44;;;;;;;1.20;0.83;;;4.70;95.10;;;;;;5000408;28;20457;-70
2021/04/27 04:39:10;;;;;;;1.20;0.80;;;4.70;94.70;;;;;;5000723;28;20447;-71
2021/04/27 04:41:37;;;;;;;2.13;1.23;;;4.90;94.80;;;;;;4997986;28;20443;-71
2021/04/27 04:44:03;;;;;;;1.20;0.80;;;5.00;94.80;;;;;;4999119;28;20445;-70
2021/04/27 04:46:30;;;;;;;1.73;1.10;;;4.90;95.10;;;;;;4998040;28;20464;-71
2021/04/27 04:48:56;;;;;;;2.37;1.13;;;5.10;95.10;;;;;;4999809;28;20488;-72
2021/04/27 04:51:22;;;;;;;1.30;0.97;;;5.20;95.60;;;;;;4997929;28;20443;-71
2021/04/27 04:53:50;;;;;;;1.20;0.90;;;5.30;94.30;;;;;;4998444;28;20450;-72
2021/04/27 04:56:16;;;;;;;1.20;0.90;;;5.20;94.10;;;;;;4999169;28;20504;-72
2021/04/27 04:58:42;;;;;;;1.20;0.80;;;5.20;95.40;;;;;;4998531;28;20446;-71
2021/04/27 05:01:08;;;;;;;1.20;0.90;;;5.50;93.80;;;;;;4998655;28;20954;-71
2021/04/27 05:03:35;;;;;;;1.20;0.80;;;5.40;94.20;;;;;;4997797;28;20865;-72
2021/04/27 05:06:01;;;;;;;1.37;1.00;;;5.50;94.40;;;;;;4998985;28;20839;-71
2021/04/27 05:08:33;;;;;;;1.20;0.90;;;5.50;94.10;;;;;;5001504;28;20462;-71
2021/04/27 05:11:00;;;;;;;1.20;0.80;;;5.60;94.10;;;;;;5000969;28;20442;-72
2021/04/27 05:13:27;;;;;;;1.20;0.80;;;5.80;93.40;;;;;;5002121;28;20445;-72
2021/04/27 05:15:53;;;;;;;2.80;1.70;;;5.60;94.00;;;;;;5002432;28;20486;-71
2021/04/27 05:18:19;;;;;;;1.20;0.80;;;5.70;95.50;;;;;;5000919;28;20973;-72
2021/04/27 05:20:46;;;;;;;1.20;0.90;;;5.80;94.20;;;;;;5002413;28;20453;-72
2021/04/27 05:23:13;;;;;;;1.20;0.80;;;6.00;93.10;;;;;;5002730;28;20828;-71
2021/04/27 05:25:39;;;;;;;1.20;0.90;;;5.90;92.20;;;;;;5000151;28;20965;-71
2021/04/27 05:28:06;;;;;;;1.20;0.80;;;6.40;90.60;;;;;;5002652;28;20437;-69
2021/04/27 05:30:32;;;;;;;1.93;0.97;;;6.30;89.00;;;;;;5002561;28;20822;-71
2021/04/27 05:32:58;;;;;;;1.20;0.90;;;6.00;91.50;;;;;;5000624;28;20457;-71
2021/04/27 05:35:25;;;;;;;1.20;0.97;;;6.30;89.90;;;;;;5000515;28;20823;-71
2021/04/27 05:37:51;;;;;;;1.40;1.00;;;6.30;90.80;;;;;;5001429;28;20449;-71
2021/04/27 05:40:20;;;;;;;1.40;1.07;;;6.30;89.10;;;;;;5002378;28;20442;-71
2021/04/27 05:42:47;;;;;;;1.20;0.90;;;6.40;90.10;;;;;;5001472;28;20513;-71
2021/04/27 05:45:14;;;;;;;1.20;0.83;;;6.60;90.00;;;;;;5002917;28;20429;-72
2021/04/27 05:47:41;;;;;;;1.20;0.80;;;6.40;89.20;;;;;;5012649;28;20501;-71
2021/04/27 05:50:08;;;;;;;1.60;1.27;;;6.50;89.60;;;;;;5006208;28;20454;-72
2021/04/27 05:52:34;;;;;;;1.20;0.80;;;6.70;89.10;;;;;;5000602;28;20495;-72
2021/04/27 05:55:01;;;;;;;1.83;1.40;;;6.90;88.40;;;;;;5001137;28;21005;-71
2021/04/27 05:57:27;;;;;;;1.33;1.03;;;7.10;88.70;;;;;;4999501;28;20454;-71
2021/04/27 05:59:53;;;;;;;1.20;0.80;;;7.10;88.20;;;;;;4997034;28;20450;-71
2021/04/27 06:02:20;;;;;;;1.20;0.80;;;7.10;88.30;;;;;;4995998;28;20466;-71
2021/04/27 06:04:47;;;;;;;1.20;0.80;;;7.20;87.30;;;;;;5003519;28;20480;-72
2021/04/27 06:07:13;;;;;;;1.73;1.17;;;7.80;85.80;;;;;;4994858;28;20466;-71
2021/04/27 06:09:39;;;;;;;1.30;1.00;;;7.60;86.50;;;;;;5001069;28;20539;-71
2021/04/27 06:12:06;;;;;;;1.20;0.80;;;7.90;85.00;;;;;;5001788;28;20570;-71
2021/04/27 06:14:32;;;;;;;3.53;1.20;;;8.10;84.70;;;;;;4999582;28;20447;-70
2021/04/27 06:16:58;;;;;;;1.57;0.93;;;8.20;84.60;;;;;;5000595;28;21042;-73
2021/04/27 06:19:26;;;;;;;1.20;0.80;;;8.50;84.10;;;;;;4995566;28;20942;-71
2021/04/27 06:21:52;;;;;;;2.00;1.63;;;9.00;82.30;;;;;;4994362;28;20822;-70
2021/04/27 06:24:18;;;;;;;1.20;0.90;;;9.10;81.90;;;;;;4997975;28;20455;-72
2021/04/27 06:26:45;;;;;;;1.20;0.90;;;9.10;81.40;;;;;;5000499;28;20470;-71
2021/04/27 06:29:11;;;;;;;1.40;0.90;;;9.30;81.50;;;;;;4997173;28;20893;-71
2021/04/27 06:31:37;;;;;;;1.20;0.87;;;9.10;82.50;;;;;;4997467;28;20457;-71
2021/04/27 06:34:04;;;;;;;1.50;0.97;;;9.40;80.00;;;;;;4999925;28;20851;-72
2021/04/27 06:36:31;;;;;;;1.30;0.90;;;9.70;79.30;;;;;;4996975;28;20477;-71
2021/04/27 06:38:58;;;;;;;2.13;1.20;;;10.10;80.20;;;;;;4997684;28;21020;-71
2021/04/27 06:41:24;;;;;;;1.70;1.57;;;10.70;77.00;;;;;;5000955;28;20901;-71
2021/04/27 06:43:50;;;;;;;1.30;1.10;;;11.00;75.20;;;;;;4996892;28;20827;-72
2021/04/27 06:46:17;;;;;;;1.40;1.10;;;11.00;75.70;;;;;;4997559;28;20466;-72
2021/04/27 06:48:43;;;;;;;1.40;1.13;;;11.40;74.60;;;;;;4998760;28;20980;-71
2021/04/27 06:51:12;;;;;;;1.67;1.17;;;11.70;72.50;;;;;;5000851;28;20508;-72
2021/04/27 06:53:39;;;;;;;1.20;0.93;;;11.70;72.80;;;;;;5000492;28;20446;-71
2021/04/27 06:56:05;;;;;;;1.20;0.90;;;12.30;71.90;;;;;;4986129;28;20490;-72
2021/04/27 06:58:32;;;;;;;1.20;0.90;;;12.20;72.30;;;;;;4997252;28;20480;-72
2021/04/27 07:00:58;;;;;;;1.50;1.07;;;12.80;70.20;;;;;;4994871;28;20453;-71
2021/04/27 07:03:24;;;;;;;1.80;1.10;;;12.20;72.20;;;;;;4998123;28;20849;-72
2021/04/27 07:05:50;;;;;;;2.07;1.43;;;12.30;72.70;;;;;;5004617;28;20462;-71
2021/04/27 07:08:17;;;;;;;1.57;1.30;;;12.10;73.50;;;;;;5010999;28;20972;-72
2021/04/27 07:10:44;;;;;;;3.20;1.10;;;12.50;72.50;;;;;;5003527;28;20443;-72
2021/04/27 07:13:10;;;;;;;1.67;1.30;;;12.70;71.80;;;;;;4989849;28;20808;-72
2021/04/27 07:15:36;;;;;;;2.20;1.80;;;12.90;71.40;;;;;;4990686;28;20489;-71
2021/04/27 07:18:03;;;;;;;3.07;1.57;;;12.90;71.60;;;;;;4993019;28;20454;-72
2021/04/27 07:20:29;;;;;;;1.40;1.07;;;13.00;69.90;;;;;;4991228;28;20465;-71
2021/04/27 07:22:55;;;;;;;2.80;1.03;;;13.30;71.60;;;;;;4990656;28;20469;-71
2021/04/27 07:25:21;;;;;;;1.63;1.10;;;13.20;70.90;;;;;;4989567;28;20443;-71
2021/04/27 07:27:49;;;;;;;1.20;1.00;;;13.30;71.20;;;;;;4997995;28;20455;-71
2021/04/27 07:30:17;;;;;;;1.30;1.00;;;13.70;71.20;;;;;;5001978;28;20449;-71
2021/04/27 07:32:44;;;;;;;1.60;1.27;;;13.40;70.30;;;;;;5010494;28;20477;-72
2021/04/27 07:35:11;;;;;;;1.87;1.00;;;13.00;71.10;;;;;;5010440;28;20505;-72
2021/04/27 07:37:38;;;;;;;1.50;1.20;;;13.00;71.60;;;;;;4993179;28;20834;-71
2021/04/27 07:40:07;;;;;;;3.10;1.37;;;12.80;72.90;;;;;;4999490;28;20449;-71
2021/04/27 07:42:34;;;;;;;1.40;1.20;;;12.50;73.10;;;;;;5000699;28;20458;-71
2021/04/27 07:45:01;;;;;;;3.00;1.50;;;12.50;73.80;;;;;;4997443;28;20435;-70
2021/04/27 07:47:27;;;;;;;1.73;1.20;;;12.30;74.50;;;;;;5005233;28;20465;-72
2021/04/27 07:49:54;;;;;;;2.00;1.37;;;12.10;75.00;;;;;;5010664;28;20461;-72
2021/04/27 07:52:20;;;;;;;1.40;0.97;;;12.00;74.70;;;;;;4995363;28;20486;-71
2021/04/27 07:54:46;;;;;;;1.53;1.00;;;12.10;74.80;;;;;;4990703;28;20453;-71
2021/04/27 07:57:13;;;;;;;1.23;0.87;;;12.20;74.80;;;;;;4990954;28;20470;-71
2021/04/27 07:59:39;;;;;;;1.40;1.20;;;12.00;74.70;;;;;;4990528;28;20454;-73
2021/04/27 08:02:06;;;;;;;6.40;1.70;;;11.60;77.40;;;;;;4985976;28;20945;-73
2021/04/27 08:04:32;;;;;;;1.40;1.10;;;11.70;76.70;;;;;;4988259;28;20450;-73
2021/04/27 08:06:58;;;;;;;1.60;1.30;;;11.80;75.60;;;;;;4989469;28;21249;-71
2021/04/27 08:09:25;;;;;;;1.77;1.30;;;11.90;75.30;;;;;;4990437;28;20461;-71
2021/04/27 08:11:53;;;;;;;2.80;1.40;;;12.00;75.50;;;;;;4990966;28;20451;-72
2021/04/27 08:14:20;;;;;;;2.87;1.33;;;11.80;74.40;;;;;;4993281;28;20469;-74
2021/04/27 08:16:46;;;;;;;1.50;1.00;;;11.90;75.70;;;;;;4999282;28;20496;-72
2021/04/27 08:19:13;;;;;;;1.30;0.90;;;11.80;75.70;;;;;;4997589;28;20445;-72
2021/04/27 08:21:40;;;;;;;1.50;1.10;;;11.80;76.60;;;;;;5000282;28;20517;-72
2021/04/27 08:24:08;;;;;;;1.80;0.93;;;11.50;77.50;;;;;;5010065;28;20880;-72
2021/04/27 08:26:34;;;;;;;1.20;0.90;;;11.50;75.00;;;;;;5010093;28;20474;-72
2021/04/27 08:29:00;;;;;;;1.83;1.17;;;11.70;76.80;;;;;;4992506;28;20458;-72
2021/04/27 08:31:26;;;;;;;1.20;0.90;;;11.70;76.60;;;;;;4990062;28;20454;-72
2021/04/27 08:33:53;;;;;;;2.17;1.00;;;11.90;76.20;;;;;;4990189;28;20447;-72
2021/04/27 08:36:20;;;;;;;2.07;1.23;;;11.90;76.40;;;;;;4989633;28;20835;-72
2021/04/27 08:38:46;;;;;;;2.13;1.50;;;12.00;76.10;;;;;;4975246;28;20502;-72
2021/04/27 08:41:13;;;;;;;1.20;0.93;;;11.60;77.50;;;;;;4971141;28;20453;-72
2021/04/27 08:43:39;;;;;;;6.87;1.27;;;11.60;76.60;;;;;;4974359;28;20455;-72
2021/04/27 08:46:05;;;;;;;1.37;0.97;;;11.80;78.10;;;;;;4974216;28;20895;-72
2021/04/27 08:48:32;;;;;;;1.30;0.90;;;11.80;77.20;;;;;;4974830;28;20455;-72
2021/04/27 08:50:59;;;;;;;2.10;1.17;;;12.00;76.20;;;;;;4987652;28;20504;-72
2021/04/27 08:53:26;;;;;;;1.30;1.10;;;11.80;77.40;;;;;;4978191;28;20455;-72
2021/04/27 08:55:52;;;;;;;1.50;1.17;;;11.80;76.00;;;;;;4978826;28;21147;-73
2021/04/27 08:58:18;;;;;;;1.87;1.10;;;11.70;77.60;;;;;;4994019;28;20462;-72
2021/04/27 09:00:46;;;;;;;1.20;0.90;;;11.80;77.90;;;;;;4993499;28;20457;-72
2021/04/27 09:03:13;;;;;;;1.63;1.40;;;11.90;77.70;;;;;;4990250;28;20459;-73
2021/04/27 09:05:42;;;;;;;3.33;1.57;;;11.90;77.20;;;;;;4987864;28;20604;-72
2021/04/27 09:08:09;;;;;;;1.20;1.00;;;12.00;77.70;;;;;;4993366;28;20454;-73
2021/04/27 09:10:40;;;;;;;1.40;0.90;;;12.00;77.90;;;;;;4993236;28;21032;-72
2021/04/27 09:13:12;;;;;;;3.33;1.37;;;12.00;77.80;;;;;;4994566;28;20465;-72
2021/04/27 09:15:43;;;;;;;1.30;1.00;;;11.90;78.70;;;;;;4991973;28;20508;-71
2021/04/27 09:18:23;;;;;;;1.20;0.87;;;12.10;76.20;;;;;;4993774;28;20816;-72
2021/04/27 09:20:51;;;;;;;2.60;1.53;;;12.20;76.60;;;;;;4993180;28;20921;-72
2021/04/27 09:23:18;;;;;;;1.50;1.10;;;12.10;77.80;;;;;;4993345;28;20503;-72
2021/04/27 09:26:12;;;;;;;1.20;0.87;;;12.50;78.20;;;;;;4992824;28;20470;-72
2021/04/27 09:28:41;;;;;;;1.20;1.00;;;12.90;75.90;;;;;;4998379;28;20818;-71
2021/04/27 09:31:23;;;;;;;1.30;0.93;;;12.90;75.90;;;;;;4996925;28;20451;-72
2021/04/27 09:33:50;;;;;;;1.77;1.33;;;13.20;74.70;;;;;;4991788;28;20499;-72
2021/04/27 09:36:21;;;;;;;1.30;1.00;;;13.50;74.70;;;;;;4992611;28;20496;-71
2021/04/27 09:38:47;;;;;;;1.73;1.00;;;13.60;72.50;;;;;;4993388;28;20434;-72
2021/04/27 09:41:14;;;;;;;1.20;1.00;;;13.90;73.70;;;;;;4992960;28;20840;-72
2021/04/27 09:43:42;;;;;;;3.20;1.50;;;13.90;72.00;;;;;;4992528;28;20463;-72
2021/04/27 09:46:10;;;;;;;1.40;0.90;;;14.40;72.30;;;;;;4992569;28;20463;-71
2021/04/27 09:48:39;;;;;;;1.53;1.30;;;15.30;69.40;;;;;;4992782;28;20447;-72
2021/04/27 09:51:20;;;;;;;1.40;1.23;;;15.70;67.90;;;;;;4993228;28;20455;-72
2021/04/27 09:53:50;;;;;;;1.67;1.10;;;15.80;68.20;;;;;;4991166;28;20473;-72
2021/04/27 09:56:35;;;;;;;1.87;1.17;;;16.20;66.40;;;;;;4992651;28;20548;-72
2021/04/27 09:59:04;;;;;;;1.40;1.07;;;16.50;66.90;;;;;;4992086;28;20504;-70
2021/04/27 10:01:30;;;;;;;2.30;1.60;;;16.40;66.10;;;;;;4992922;28;20450;-73
2021/04/27 10:03:57;;;;;;;1.63;1.10;;;16.50;65.60;;;;;;4998147;28;20556;-72
2021/04/27 10:06:23;;;;;;;1.30;1.10;;;16.10;67.10;;;;;;4991854;28;20475;-72
2021/04/27 10:08:50;;;;;;;1.20;0.87;;;15.80;67.40;;;;;;4992800;28;20455;-73
2021/04/27 10:11:18;;;;;;;1.20;0.93;;;15.60;69.60;;;;;;4992262;28;20442;-72
2021/04/27 10:13:45;;;;;;;2.10;1.40;;;15.60;67.90;;;;;;4992186;28;20877;-71
2021/04/27 10:16:13;;;;;;;2.67;1.30;;;15.30;67.00;;;;;;4989943;28;20540;-72
2021/04/27 10:18:40;;;;;;;1.40;1.03;;;15.10;66.70;;;;;;4992666;28;20461;-72
2021/04/27 10:21:06;;;;;;;1.53;1.17;;;14.90;67.10;;;;;;4992607;28;20613;-72
2021/04/27 10:23:33;;;;;;;1.50;1.37;;;14.60;69.00;;;;;;4992150;28;20451;-72
2021/04/27 10:25:59;;;;;;;2.53;1.30;;;14.80;68.50;;;;;;4992138;28;20470;-71
2021/04/27 10:28:59;;;;;;;1.20;1.00;;;14.90;67.80;;;;;;4991914;28;20454;-72
2021/04/27 10:31:27;;;;;;;1.30;1.00;;;14.30;69.30;;;;;;4985591;28;20457;-71
2021/04/27 10:34:02;;;;;;;2.90;1.40;;;14.30;69.90;;;;;;4991611;28;20939;-71
2021/04/27 10:36:29;;;;;;;1.30;1.00;;;14.50;65.10;;;;;;4991322;28;20531;-71
2021/04/27 10:38:58;;;;;;;2.93;1.20;;;14.60;64.30;;;;;;4992297;28;20608;-71
2021/04/27 10:41:43;;;;;;;2.50;1.10;;;14.50;64.60;;;;;;4991749;28;20457;-71
2021/04/27 10:44:10;;;;;;;2.17;1.77;;;14.50;65.70;;;;;;4992114;28;20867;-72
2021/04/27 10:46:48;;;;;;;1.30;1.17;;;14.60;64.80;;;;;;4990898;28;20713;-72
2021/04/27 10:49:33;;;;;;;1.33;1.10;;;14.70;65.00;;;;;;4991944;28;20457;-72
2021/04/27 10:52:02;;;;;;;1.27;1.03;;;14.40;63.40;;;;;;4987101;28;20451;-72
2021/04/27 10:54:30;;;;;;;2.53;1.30;;;14.60;66.50;;;;;;4972371;28;20451;-72
2021/04/27 10:57:15;;;;;;;1.77;1.00;;;14.70;63.90;;;;;;4984411;28;20490;-71
2021/04/27 10:59:59;;;;;;;2.03;1.20;;;14.60;66.30;;;;;;4990527;28;20896;-71
2021/04/27 11:02:28;;;;;;;1.50;0.97;;;14.70;65.60;;;;;;4994014;28;20941;-71
2021/04/27 11:04:58;;;;;;;2.53;1.50;;;14.80;62.80;;;;;;4990670;28;20446;-72
2021/04/27 11:07:38;;;;;;;1.50;1.10;;;14.80;63.90;;;;;;4991147;28;20474;-72
2021/04/27 11:10:22;;;;;;;1.73;1.23;;;14.80;63.10;;;;;;4989226;28;20456;-73
2021/04/27 11:12:54;;;;;;;1.70;0.80;;;14.70;63.10;;;;;;4971846;28;20455;-71
2021/04/27 11:15:24;;;;;;;2.67;1.47;;;14.70;65.70;;;;;;4971279;28;20491;-71
2021/04/27 11:17:57;;;;;;;1.60;1.33;;;14.80;65.50;;;;;;4989186;28;20516;-72
2021/04/27 11:21:02;;;;;;;1.33;0.93;;;14.70;68.00;;;;;;4990721;28;20981;-72
2021/04/27 11:23:44;;;;;;;1.70;1.20;;;14.60;65.20;;;;;;4990910;28;20515;-72
2021/04/27 11:26:39;;;;;;;1.60;1.30;;;14.80;65.70;;;;;;4990189;28;20473;-71
2021/04/27 11:29:07;;;;;;;2.70;1.43;;;14.80;64.20;;;;;;4991014;28;20455;-72
2021/04/27 11:31:59;;;;;;;3.53;1.10;;;14.90;65.20;;;;;;4990955;28;20504;-73
2021/04/27 11:34:26;;;;;;;3.93;1.30;;;14.70;65.00;;;;;;4990900;28;20830;-72
2021/04/27 11:36:53;;;;;;;2.70;1.50;;;14.70;66.10;;;;;;4990005;28;20482;-72
2021/04/27 11:39:21;;;;;;;3.93;1.23;;;14.90;64.90;;;;;;4990606;28;20449;-72
2021/04/27 11:41:48;;;;;;;2.00;1.40;;;15.00;66.70;;;;;;4990557;28;20451;-72
2021/04/27 11:44:16;;;;;;;1.77;1.00;;;15.00;67.80;;;;;;4990635;28;20450;-71
2021/04/27 11:46:59;;;;;;;1.83;0.97;;;14.90;68.00;;;;;;4998493;28;20497;-71
2021/04/27 11:49:46;;;;;;;1.93;1.00;;;15.20;63.60;;;;;;4997035;28;20453;-72
2021/04/27 11:52:12;;;;;;;1.30;0.90;;;15.20;64.10;;;;;;4991302;28;20458;-71
2021/04/27 11:54:39;;;;;;;1.30;0.93;;;15.00;62.90;;;;;;4999927;28;21002;-72
2021/04/27 11:57:14;;;;;;;1.40;0.90;;;14.70;63.60;;;;;;4998685;28;20545;-72
2021/04/27 11:59:40;;;;;;;3.47;1.07;;;14.70;66.60;;;;;;4996831;28;20449;-71
2021/04/27 12:02:08;;;;;;;4.27;1.20;;;15.00;66.20;;;;;;4997523;28;20453;-72
2021/04/27 12:04:34;;;;;;;1.33;1.17;;;15.30;67.70;;;;;;4995946;28;20477;-73
2021/04/27 12:07:00;;;;;;;2.43;1.50;;;15.20;64.80;;;;;;4997946;28;20473;-72
2021/04/27 12:09:27;;;;;;;1.60;1.30;;;15.10;65.20;;;;;;4995503;28;21214;-72
2021/04/27 12:12:06;;;;;;;2.30;1.50;;;15.10;66.30;;;;;;4998618;28;20446;-72
2021/04/27 12:14:33;;;;;;;1.90;1.40;;;15.10;67.10;;;;;;5006717;28;20503;-72
2021/04/27 12:16:59;;;;;;;1.30;1.07;;;15.10;67.10;;;;;;4994941;28;20486;-71
2021/04/27 12:19:27;;;;;;;1.20;0.80;;;15.20;67.40;;;;;;4990095;28;20461;-71
2021/04/27 12:21:55;;;;;;;2.23;1.20;;;15.40;69.00;;;;;;4990451;28;21049;-71
2021/04/27 12:24:23;;;;;;;2.00;1.17;;;15.50;68.00;;;;;;4990205;28;20446;-70
2021/04/27 12:26:52;;;;;;;1.50;1.00;;;15.60;68.30;;;;;;4989637;28;20476;-71
2021/04/27 12:29:30;;;;;;;1.83;1.10;;;15.30;67.10;;;;;;4991722;28;20446;-70
2021/04/27 12:32:02;;;;;;;1.60;1.27;;;15.20;66.10;;;;;;4990071;28;20450;-71
2021/04/27 12:34:29;;;;;;;1.20;0.90;;;15.30;68.30;;;;;;4990288;28;20846;-72
2021/04/27 12:36:59;;;;;;;2.53;1.67;;;15.30;67.70;;;;;;4989171;28;21001;-73
2021/04/27 12:39:31;;;;;;;1.77;1.20;;;15.60;66.50;;;;;;4990406;28;20533;-72
2021/04/27 12:42:00;;;;;;;1.40;1.10;;;15.70;66.80;;;;;;4989936;28;20957;-72
2021/04/27 12:44:35;;;;;;;3.00;1.73;;;15.70;65.90;;;;;;4989858;28;20446;-72
2021/04/27 12:47:05;;;;;;;1.83;1.30;;;15.50;67.00;;;;;;4993570;28;20498;-72
2021/04/27 12:49:34;;;;;;;2.07;1.20;;;15.60;65.10;;;;;;4994130;28;20453;-72
2021/04/27 12:52:07;;;;;;;1.40;1.20;;;15.70;62.10;;;;;;4995346;28;20561;-71
2021/04/27 12:54:35;;;;;;;1.30;1.20;;;15.60;62.40;;;;;;4995026;28;20722;-72
2021/04/27 12:57:10;;;;;;;1.63;1.30;;;15.70;62.10;;;;;;4991767;28;20504;-70
2021/04/27 12:59:38;;;;;;;1.97;1.23;;;15.70;63.00;;;;;;4988741;28;20822;-72